createdAt,value
2018-07-04T17:58:57.650Z,1.97
2018-07-04T18:01:37.856Z,1.97
2018-07-04T18:04:18.358Z,1.90
2018-07-04T22:04:39.639Z,2.30
2018-07-04T22:07:20.092Z,2.10
2018-07-04T22:10:00.591Z,2.53
2018-07-04T22:12:43.186Z,2.30
2018-07-04T22:15:23.631Z,2.53
2018-07-04T22:18:04.122Z,2.73
2018-07-04T22:20:44.370Z,3.03
2018-07-04T22:23:24.776Z,2.63
2018-07-04T22:26:05.202Z,3.03
2018-07-04T22:28:45.559Z,3.00
2018-07-04T22:31:25.952Z,3.20
2018-07-04T22:34:06.503Z,3.10
2018-07-04T22:36:47.019Z,3.40
2018-07-04T22:39:33.251Z,3.13
2018-07-04T22:42:19.667Z,3.07
2018-07-04T22:45:06.321Z,3.53
2018-07-04T22:47:52.585Z,3.17
2018-07-04T22:50:33.105Z,3.70
2018-07-04T22:53:19.483Z,3.47
2018-07-04T22:56:05.993Z,3.73
2018-07-04T22:58:52.245Z,3.57
2018-07-04T23:01:38.646Z,4.13
2018-07-04T23:04:25.160Z,4.13
2018-07-04T23:07:11.651Z,4.13
2018-07-04T23:09:58.006Z,3.87
2018-07-04T23:12:44.511Z,4.10
2018-07-04T23:15:30.893Z,4.57
2018-07-04T23:18:17.279Z,4.67
2018-07-04T23:21:03.811Z,4.57
2018-07-04T23:23:50.520Z,4.97
2018-07-04T23:26:37.075Z,4.90
2018-07-04T23:29:23.371Z,4.93
2018-07-04T23:32:09.826Z,4.67
2018-07-04T23:34:56.241Z,5.30
2018-07-04T23:37:42.657Z,4.67
2018-07-04T23:40:29.112Z,4.60
2018-07-04T23:43:15.499Z,4.40
2018-07-04T23:46:01.992Z,4.23
2018-07-04T23:48:48.454Z,4.13
2018-07-04T23:51:34.986Z,4.77
2018-07-04T23:54:21.490Z,4.63
2018-07-04T23:57:07.944Z,5.50
2018-07-04T23:59:54.374Z,5.73
